Terminal Aerodrome Forecast
Issued by NWS

Home | Current Version | Previous Version | Text Only | Print | Product List | Glossary On
Versions: 1 2 3 4 5 6 7 8 9 10 11 12 13 14 15 16 17 18 19 20 21 22 23 24
934
FTUS46 KOTX 240539
TAFSFF
TAF
KSFF 240539Z 2406/2506 VRB03KT P6SM VCSH FEW070 SCT100 OVC120
     FM241000 21006KT P6SM VCTS BKN070CB OVC100
     FM241300 20007KT P6SM SCT070 BKN100
     FM241600 21009G14KT P6SM FEW050 SCT100
     FM242000 22013G20KT P6SM FEW050 SCT200
     FM250300 24007KT P6SM FEW200=

USA.gov is the U.S. government's official web portal to all federal, state and local government web resources and services.